sensor_id;sensor_type;location;lat;lon;timestamp;P1;durP1;ratioP1;P2;durP2;ratioP2
17207;SDS011;8720;48.488;9.202;2023-02-15T00:02:03;35.83;;;20.88;;
17207;SDS011;8720;48.488;9.202;2023-02-15T00:04:30;31.77;;;21.90;;
17207;SDS011;8720;48.488;9.202;2023-02-15T00:07:24;33.17;;;21.35;;
17207;SDS011;8720;48.488;9.202;2023-02-15T00:09:52;34.67;;;20.55;;
17207;SDS011;8720;48.488;9.202;2023-02-15T00:12:19;32.65;;;21.55;;
17207;SDS011;8720;48.488;9.202;2023-02-15T00:14:46;28.43;;;20.90;;
17207;SDS011;8720;48.488;9.202;2023-02-15T00:17:17;32.03;;;21.70;;
17207;SDS011;8720;48.488;9.202;2023-02-15T00:19:44;23.67;;;17.00;;
17207;SDS011;8720;48.488;9.202;2023-02-15T00:22:11;31.42;;;21.23;;
17207;SDS011;8720;48.488;9.202;2023-02-15T00:24:40;31.67;;;21.40;;
17207;SDS011;8720;48.488;9.202;2023-02-15T00:27:07;31.83;;;20.40;;
17207;SDS011;8720;48.488;9.202;2023-02-15T00:29:35;29.00;;;18.40;;
17207;SDS011;8720;48.488;9.202;2023-02-15T00:32:03;28.80;;;20.50;;
17207;SDS011;8720;48.488;9.202;2023-02-15T00:34:31;32.80;;;23.20;;
17207;SDS011;8720;48.488;9.202;2023-02-15T00:36:58;28.95;;;19.67;;
17207;SDS011;8720;48.488;9.202;2023-02-15T00:39:26;30.33;;;23.55;;
17207;SDS011;8720;48.488;9.202;2023-02-15T00:41:55;31.20;;;22.90;;
17207;SDS011;8720;48.488;9.202;2023-02-15T00:44:22;29.53;;;21.63;;
17207;SDS011;8720;48.488;9.202;2023-02-15T00:46:50;30.23;;;22.42;;
17207;SDS011;8720;48.488;9.202;2023-02-15T00:49:19;35.00;;;24.27;;
17207;SDS011;8720;48.488;9.202;2023-02-15T00:51:46;31.73;;;22.80;;
17207;SDS011;8720;48.488;9.202;2023-02-15T00:54:14;34.30;;;22.73;;
17207;SDS011;8720;48.488;9.202;2023-02-15T00:56:41;31.23;;;22.17;;
17207;SDS011;8720;48.488;9.202;2023-02-15T00:59:10;32.85;;;22.00;;
17207;SDS011;8720;48.488;9.202;2023-02-15T01:01:37;28.77;;;21.52;;
17207;SDS011;8720;48.488;9.202;2023-02-15T01:04:04;27.67;;;19.88;;
17207;SDS011;8720;48.488;9.202;2023-02-15T01:06:32;32.22;;;22.00;;
17207;SDS011;8720;48.488;9.202;2023-02-15T01:08:59;25.60;;;19.10;;
17207;SDS011;8720;48.488;9.202;2023-02-15T01:11:26;29.42;;;20.98;;
17207;SDS011;8720;48.488;9.202;2023-02-15T01:13:54;30.17;;;21.52;;
17207;SDS011;8720;48.488;9.202;2023-02-15T01:16:27;29.98;;;22.00;;
17207;SDS011;8720;48.488;9.202;2023-02-15T01:18:55;26.30;;;21.23;;
17207;SDS011;8720;48.488;9.202;2023-02-15T01:21:24;28.45;;;21.08;;
17207;SDS011;8720;48.488;9.202;2023-02-15T01:23:52;34.20;;;23.50;;
17207;SDS011;8720;48.488;9.202;2023-02-15T01:26:19;31.80;;;23.48;;
17207;SDS011;8720;48.488;9.202;2023-02-15T01:28:47;32.10;;;21.30;;
17207;SDS011;8720;48.488;9.202;2023-02-15T01:31:16;32.20;;;22.30;;
17207;SDS011;8720;48.488;9.202;2023-02-15T01:33:48;26.85;;;21.08;;
17207;SDS011;8720;48.488;9.202;2023-02-15T01:36:15;30.92;;;21.40;;
17207;SDS011;8720;48.488;9.202;2023-02-15T01:38:43;26.13;;;20.45;;
17207;SDS011;8720;48.488;9.202;2023-02-15T01:41:10;31.95;;;20.73;;
17207;SDS011;8720;48.488;9.202;2023-02-15T01:43:49;26.67;;;20.50;;
17207;SDS011;8720;48.488;9.202;2023-02-15T01:46:19;28.30;;;21.00;;
17207;SDS011;8720;48.488;9.202;2023-02-15T01:48:53;27.80;;;19.77;;
17207;SDS011;8720;48.488;9.202;2023-02-15T01:51:30;28.80;;;19.48;;
17207;SDS011;8720;48.488;9.202;2023-02-15T01:54:03;30.08;;;19.63;;
17207;SDS011;8720;48.488;9.202;2023-02-15T01:56:37;30.23;;;21.08;;
17207;SDS011;8720;48.488;9.202;2023-02-15T01:59:08;29.35;;;21.15;;
17207;SDS011;8720;48.488;9.202;2023-02-15T02:01:41;28.25;;;19.35;;
17207;SDS011;8720;48.488;9.202;2023-02-15T02:04:13;29.45;;;19.17;;
17207;SDS011;8720;48.488;9.202;2023-02-15T02:06:50;28.05;;;19.75;;
17207;SDS011;8720;48.488;9.202;2023-02-15T02:09:19;26.17;;;19.73;;
17207;SDS011;8720;48.488;9.202;2023-02-15T02:11:47;27.50;;;19.75;;
17207;SDS011;8720;48.488;9.202;2023-02-15T02:14:15;25.60;;;17.15;;
17207;SDS011;8720;48.488;9.202;2023-02-15T02:16:45;27.85;;;19.75;;
17207;SDS011;8720;48.488;9.202;2023-02-15T02:19:45;25.00;;;18.23;;
17207;SDS011;8720;48.488;9.202;2023-02-15T02:23:06;29.30;;;18.45;;
17207;SDS011;8720;48.488;9.202;2023-02-15T02:33:11;27.05;;;18.23;;
17207;SDS011;8720;48.488;9.202;2023-02-15T02:36:14;26.08;;;18.65;;
17207;SDS011;8720;48.488;9.202;2023-02-15T02:39:02;30.63;;;20.77;;
17207;SDS011;8720;48.488;9.202;2023-02-15T02:41:45;30.35;;;18.90;;
17207;SDS011;8720;48.488;9.202;2023-02-15T02:44:25;29.65;;;20.15;;
17207;SDS011;8720;48.488;9.202;2023-02-15T02:47:02;27.05;;;20.30;;
17207;SDS011;8720;48.488;9.202;2023-02-15T02:49:39;25.65;;;18.70;;
17207;SDS011;8720;48.488;9.202;2023-02-15T02:55:09;25.60;;;19.10;;
17207;SDS011;8720;48.488;9.202;2023-02-15T02:57:45;25.60;;;19.30;;
17207;SDS011;8720;48.488;9.202;2023-02-15T03:03:10;29.08;;;18.20;;
17207;SDS011;8720;48.488;9.202;2023-02-15T03:05:49;29.17;;;19.00;;
17207;SDS011;8720;48.488;9.202;2023-02-15T03:08:22;26.25;;;17.45;;
17207;SDS011;8720;48.488;9.202;2023-02-15T03:10:57;23.55;;;17.20;;
17207;SDS011;8720;48.488;9.202;2023-02-15T03:13:28;22.45;;;15.95;;
17207;SDS011;8720;48.488;9.202;2023-02-15T03:15:56;29.27;;;17.55;;
17207;SDS011;8720;48.488;9.202;2023-02-15T03:18:44;27.65;;;19.00;;
17207;SDS011;8720;48.488;9.202;2023-02-15T03:21:25;25.38;;;16.30;;
17207;SDS011;8720;48.488;9.202;2023-02-15T03:24:06;27.80;;;17.83;;
17207;SDS011;8720;48.488;9.202;2023-02-15T03:26:38;27.05;;;18.92;;
17207;SDS011;8720;48.488;9.202;2023-02-15T03:29:09;25.13;;;18.58;;
17207;SDS011;8720;48.488;9.202;2023-02-15T03:31:40;27.27;;;17.80;;
17207;SDS011;8720;48.488;9.202;2023-02-15T03:34:13;29.90;;;18.45;;
17207;SDS011;8720;48.488;9.202;2023-02-15T03:36:45;26.02;;;17.73;;
17207;SDS011;8720;48.488;9.202;2023-02-15T03:39:19;27.83;;;18.00;;
17207;SDS011;8720;48.488;9.202;2023-02-15T03:41:55;27.90;;;17.65;;
17207;SDS011;8720;48.488;9.202;2023-02-15T03:44:31;26.27;;;17.63;;
17207;SDS011;8720;48.488;9.202;2023-02-15T03:47:15;26.58;;;18.55;;
17207;SDS011;8720;48.488;9.202;2023-02-15T03:49:48;27.50;;;18.30;;
17207;SDS011;8720;48.488;9.202;2023-02-15T03:52:24;30.38;;;19.45;;
17207;SDS011;8720;48.488;9.202;2023-02-15T03:54:54;22.23;;;17.38;;
17207;SDS011;8720;48.488;9.202;2023-02-15T03:57:23;22.45;;;17.05;;
17207;SDS011;8720;48.488;9.202;2023-02-15T04:00:12;29.02;;;17.92;;
17207;SDS011;8720;48.488;9.202;2023-02-15T04:03:06;25.88;;;17.73;;
17207;SDS011;8720;48.488;9.202;2023-02-15T04:05:49;28.45;;;18.95;;
17207;SDS011;8720;48.488;9.202;2023-02-15T04:08:18;27.75;;;18.45;;
17207;SDS011;8720;48.488;9.202;2023-02-15T04:10:45;25.75;;;18.98;;
17207;SDS011;8720;48.488;9.202;2023-02-15T04:13:17;30.38;;;18.38;;
17207;SDS011;8720;48.488;9.202;2023-02-15T04:15:45;24.95;;;17.90;;
17207;SDS011;8720;48.488;9.202;2023-02-15T04:18:29;27.33;;;18.52;;
17207;SDS011;8720;48.488;9.202;2023-02-15T04:21:16;23.65;;;17.75;;
17207;SDS011;8720;48.488;9.202;2023-02-15T04:24:02;23.58;;;16.55;;
17207;SDS011;8720;48.488;9.202;2023-02-15T04:26:48;23.80;;;16.95;;
17207;SDS011;8720;48.488;9.202;2023-02-15T04:29:18;24.83;;;16.60;;
17207;SDS011;8720;48.488;9.202;2023-02-15T04:31:46;24.58;;;16.85;;
17207;SDS011;8720;48.488;9.202;2023-02-15T04:34:13;26.98;;;17.80;;
17207;SDS011;8720;48.488;9.202;2023-02-15T04:36:41;22.88;;;16.92;;
17207;SDS011;8720;48.488;9.202;2023-02-15T04:39:12;23.50;;;17.30;;
17207;SDS011;8720;48.488;9.202;2023-02-15T04:41:40;24.83;;;16.83;;
17207;SDS011;8720;48.488;9.202;2023-02-15T04:44:08;25.63;;;16.02;;
17207;SDS011;8720;48.488;9.202;2023-02-15T04:46:36;21.90;;;15.02;;
17207;SDS011;8720;48.488;9.202;2023-02-15T04:49:03;23.83;;;15.88;;
17207;SDS011;8720;48.488;9.202;2023-02-15T04:51:31;26.80;;;16.00;;
17207;SDS011;8720;48.488;9.202;2023-02-15T04:53:58;22.90;;;13.98;;
17207;SDS011;8720;48.488;9.202;2023-02-15T04:56:27;28.02;;;17.25;;
17207;SDS011;8720;48.488;9.202;2023-02-15T04:58:55;24.38;;;16.70;;
17207;SDS011;8720;48.488;9.202;2023-02-15T05:01:22;23.92;;;17.38;;
17207;SDS011;8720;48.488;9.202;2023-02-15T05:03:49;23.42;;;16.17;;
17207;SDS011;8720;48.488;9.202;2023-02-15T05:06:17;24.70;;;15.95;;
17207;SDS011;8720;48.488;9.202;2023-02-15T05:08:44;20.25;;;14.55;;
17207;SDS011;8720;48.488;9.202;2023-02-15T05:11:11;25.15;;;15.68;;
17207;SDS011;8720;48.488;9.202;2023-02-15T05:13:40;23.58;;;15.93;;
17207;SDS011;8720;48.488;9.202;2023-02-15T05:16:07;21.67;;;15.50;;
17207;SDS011;8720;48.488;9.202;2023-02-15T05:18:34;26.95;;;16.23;;
17207;SDS011;8720;48.488;9.202;2023-02-15T05:21:02;25.00;;;15.90;;
17207;SDS011;8720;48.488;9.202;2023-02-15T05:23:30;24.25;;;15.45;;
17207;SDS011;8720;48.488;9.202;2023-02-15T05:25:57;26.23;;;17.05;;
17207;SDS011;8720;48.488;9.202;2023-02-15T05:28:43;26.48;;;16.55;;
17207;SDS011;8720;48.488;9.202;2023-02-15T05:31:11;24.42;;;17.90;;
17207;SDS011;8720;48.488;9.202;2023-02-15T05:33:40;24.70;;;17.88;;
17207;SDS011;8720;48.488;9.202;2023-02-15T05:36:08;25.60;;;16.90;;
17207;SDS011;8720;48.488;9.202;2023-02-15T05:38:35;24.48;;;16.65;;
17207;SDS011;8720;48.488;9.202;2023-02-15T05:41:03;28.05;;;16.63;;
17207;SDS011;8720;48.488;9.202;2023-02-15T05:43:31;22.92;;;14.05;;
17207;SDS011;8720;48.488;9.202;2023-02-15T05:46:00;20.67;;;14.65;;
17207;SDS011;8720;48.488;9.202;2023-02-15T05:48:29;23.77;;;14.63;;
17207;SDS011;8720;48.488;9.202;2023-02-15T05:50:57;19.90;;;14.40;;
17207;SDS011;8720;48.488;9.202;2023-02-15T05:53:26;22.30;;;14.57;;
17207;SDS011;8720;48.488;9.202;2023-02-15T05:55:54;18.83;;;13.45;;
17207;SDS011;8720;48.488;9.202;2023-02-15T05:58:24;23.80;;;14.05;;
17207;SDS011;8720;48.488;9.202;2023-02-15T06:00:52;20.60;;;13.75;;
17207;SDS011;8720;48.488;9.202;2023-02-15T06:03:21;19.40;;;13.30;;
17207;SDS011;8720;48.488;9.202;2023-02-15T06:05:50;21.75;;;12.48;;
17207;SDS011;8720;48.488;9.202;2023-02-15T06:08:18;19.42;;;14.07;;
17207;SDS011;8720;48.488;9.202;2023-02-15T06:10:46;22.17;;;13.65;;
17207;SDS011;8720;48.488;9.202;2023-02-15T06:13:13;24.00;;;15.35;;
17207;SDS011;8720;48.488;9.202;2023-02-15T06:15:41;24.58;;;14.75;;
17207;SDS011;8720;48.488;9.202;2023-02-15T06:18:08;20.05;;;15.00;;
17207;SDS011;8720;48.488;9.202;2023-02-15T06:20:37;24.80;;;15.45;;
17207;SDS011;8720;48.488;9.202;2023-02-15T06:23:04;23.02;;;16.35;;
17207;SDS011;8720;48.488;9.202;2023-02-15T06:25:31;22.15;;;16.05;;
17207;SDS011;8720;48.488;9.202;2023-02-15T06:27:58;24.30;;;15.60;;
17207;SDS011;8720;48.488;9.202;2023-02-15T06:30:26;22.63;;;15.35;;
17207;SDS011;8720;48.488;9.202;2023-02-15T06:32:53;21.92;;;15.70;;
17207;SDS011;8720;48.488;9.202;2023-02-15T06:35:20;24.48;;;15.93;;
17207;SDS011;8720;48.488;9.202;2023-02-15T06:37:49;24.10;;;16.20;;
17207;SDS011;8720;48.488;9.202;2023-02-15T06:40:16;22.20;;;14.82;;
17207;SDS011;8720;48.488;9.202;2023-02-15T06:42:44;30.65;;;16.98;;
17207;SDS011;8720;48.488;9.202;2023-02-15T06:45:11;23.83;;;18.00;;
17207;SDS011;8720;48.488;9.202;2023-02-15T06:47:39;24.83;;;18.10;;
17207;SDS011;8720;48.488;9.202;2023-02-15T06:50:07;26.52;;;17.35;;
17207;SDS011;8720;48.488;9.202;2023-02-15T06:52:36;25.35;;;15.82;;
17207;SDS011;8720;48.488;9.202;2023-02-15T06:55:05;21.02;;;15.48;;
17207;SDS011;8720;48.488;9.202;2023-02-15T06:57:33;21.65;;;15.82;;
17207;SDS011;8720;48.488;9.202;2023-02-15T07:00:00;31.10;;;16.17;;
17207;SDS011;8720;48.488;9.202;2023-02-15T07:02:29;22.98;;;15.57;;
17207;SDS011;8720;48.488;9.202;2023-02-15T07:04:57;24.33;;;16.25;;
17207;SDS011;8720;48.488;9.202;2023-02-15T07:07:24;23.73;;;17.50;;
17207;SDS011;8720;48.488;9.202;2023-02-15T07:09:52;24.38;;;19.20;;
17207;SDS011;8720;48.488;9.202;2023-02-15T07:12:20;26.30;;;17.65;;
17207;SDS011;8720;48.488;9.202;2023-02-15T07:15:05;23.58;;;16.27;;
17207;SDS011;8720;48.488;9.202;2023-02-15T07:17:34;22.30;;;16.70;;
17207;SDS011;8720;48.488;9.202;2023-02-15T07:20:03;25.35;;;16.05;;
17207;SDS011;8720;48.488;9.202;2023-02-15T07:22:32;29.40;;;17.75;;
17207;SDS011;8720;48.488;9.202;2023-02-15T07:25:01;32.75;;;20.27;;
17207;SDS011;8720;48.488;9.202;2023-02-15T07:27:31;25.50;;;19.83;;
17207;SDS011;8720;48.488;9.202;2023-02-15T07:29:59;25.45;;;17.35;;
17207;SDS011;8720;48.488;9.202;2023-02-15T07:32:27;26.67;;;18.80;;
17207;SDS011;8720;48.488;9.202;2023-02-15T07:34:56;25.05;;;18.70;;
17207;SDS011;8720;48.488;9.202;2023-02-15T07:37:25;27.45;;;19.40;;
17207;SDS011;8720;48.488;9.202;2023-02-15T07:39:53;29.20;;;20.42;;
17207;SDS011;8720;48.488;9.202;2023-02-15T07:42:21;27.63;;;19.42;;
17207;SDS011;8720;48.488;9.202;2023-02-15T07:44:49;27.37;;;20.60;;
17207;SDS011;8720;48.488;9.202;2023-02-15T07:47:17;28.00;;;20.13;;
17207;SDS011;8720;48.488;9.202;2023-02-15T07:49:45;25.53;;;18.93;;
17207;SDS011;8720;48.488;9.202;2023-02-15T07:52:14;29.97;;;19.50;;
17207;SDS011;8720;48.488;9.202;2023-02-15T07:54:41;30.97;;;20.40;;
17207;SDS011;8720;48.488;9.202;2023-02-15T07:57:09;30.43;;;20.90;;
17207;SDS011;8720;48.488;9.202;2023-02-15T07:59:36;28.73;;;19.50;;
17207;SDS011;8720;48.488;9.202;2023-02-15T08:02:07;23.40;;;17.47;;
17207;SDS011;8720;48.488;9.202;2023-02-15T08:04:36;23.73;;;17.73;;
17207;SDS011;8720;48.488;9.202;2023-02-15T08:07:04;24.63;;;17.60;;
17207;SDS011;8720;48.488;9.202;2023-02-15T08:09:32;22.77;;;18.07;;
17207;SDS011;8720;48.488;9.202;2023-02-15T08:11:59;20.77;;;16.90;;
17207;SDS011;8720;48.488;9.202;2023-02-15T08:14:27;24.47;;;17.60;;
17207;SDS011;8720;48.488;9.202;2023-02-15T08:16:55;23.80;;;18.40;;
17207;SDS011;8720;48.488;9.202;2023-02-15T08:19:29;27.07;;;20.60;;
17207;SDS011;8720;48.488;9.202;2023-02-15T08:22:00;29.23;;;21.50;;
17207;SDS011;8720;48.488;9.202;2023-02-15T08:24:31;25.80;;;19.63;;
17207;SDS011;8720;48.488;9.202;2023-02-15T08:27:01;24.60;;;18.27;;
17207;SDS011;8720;48.488;9.202;2023-02-15T08:29:30;24.53;;;17.73;;
17207;SDS011;8720;48.488;9.202;2023-02-15T08:31:59;25.37;;;18.93;;
17207;SDS011;8720;48.488;9.202;2023-02-15T08:34:32;22.63;;;18.77;;
17207;SDS011;8720;48.488;9.202;2023-02-15T08:37:02;25.10;;;17.93;;
17207;SDS011;8720;48.488;9.202;2023-02-15T08:39:31;20.40;;;16.70;;
17207;SDS011;8720;48.488;9.202;2023-02-15T08:41:58;20.83;;;16.17;;
17207;SDS011;8720;48.488;9.202;2023-02-15T08:44:26;24.50;;;17.30;;
17207;SDS011;8720;48.488;9.202;2023-02-15T08:46:56;20.63;;;16.73;;
17207;SDS011;8720;48.488;9.202;2023-02-15T08:49:28;20.33;;;15.50;;
17207;SDS011;8720;48.488;9.202;2023-02-15T08:51:57;19.00;;;15.00;;
17207;SDS011;8720;48.488;9.202;2023-02-15T08:54:25;19.17;;;13.80;;
17207;SDS011;8720;48.488;9.202;2023-02-15T08:56:52;17.70;;;13.47;;
17207;SDS011;8720;48.488;9.202;2023-02-15T08:59:20;19.80;;;14.23;;
17207;SDS011;8720;48.488;9.202;2023-02-15T09:01:49;18.10;;;14.33;;
17207;SDS011;8720;48.488;9.202;2023-02-15T09:04:18;20.90;;;13.33;;
17207;SDS011;8720;48.488;9.202;2023-02-15T09:06:49;16.73;;;13.20;;
17207;SDS011;8720;48.488;9.202;2023-02-15T09:09:17;18.33;;;13.53;;
17207;SDS011;8720;48.488;9.202;2023-02-15T09:11:46;16.60;;;13.17;;
17207;SDS011;8720;48.488;9.202;2023-02-15T09:14:16;15.07;;;11.73;;
17207;SDS011;8720;48.488;9.202;2023-02-15T09:16:47;16.53;;;13.23;;
17207;SDS011;8720;48.488;9.202;2023-02-15T09:19:16;16.90;;;13.40;;
17207;SDS011;8720;48.488;9.202;2023-02-15T09:21:46;15.17;;;11.73;;
17207;SDS011;8720;48.488;9.202;2023-02-15T09:24:15;14.70;;;11.43;;
17207;SDS011;8720;48.488;9.202;2023-02-15T09:26:44;14.80;;;12.30;;
17207;SDS011;8720;48.488;9.202;2023-02-15T09:29:13;16.87;;;11.70;;
17207;SDS011;8720;48.488;9.202;2023-02-15T09:31:43;18.53;;;12.50;;
17207;SDS011;8720;48.488;9.202;2023-02-15T09:34:12;14.27;;;11.70;;
17207;SDS011;8720;48.488;9.202;2023-02-15T09:36:42;17.17;;;12.27;;
17207;SDS011;8720;48.488;9.202;2023-02-15T09:39:12;21.67;;;12.30;;
17207;SDS011;8720;48.488;9.202;2023-02-15T09:48:03;21.30;;;13.43;;
17207;SDS011;8720;48.488;9.202;2023-02-15T09:51:00;18.20;;;12.97;;
17207;SDS011;8720;48.488;9.202;2023-02-15T09:53:55;17.60;;;14.37;;
17207;SDS011;8720;48.488;9.202;2023-02-15T09:56:47;17.07;;;14.13;;
17207;SDS011;8720;48.488;9.202;2023-02-15T09:59:20;18.93;;;12.13;;
17207;SDS011;8720;48.488;9.202;2023-02-15T10:02:03;21.33;;;14.13;;
17207;SDS011;8720;48.488;9.202;2023-02-15T10:04:53;16.23;;;12.87;;
17207;SDS011;8720;48.488;9.202;2023-02-15T10:07:47;17.37;;;13.60;;
17207;SDS011;8720;48.488;9.202;2023-02-15T10:10:54;19.37;;;13.10;;
17207;SDS011;8720;48.488;9.202;2023-02-15T10:13:52;17.63;;;13.27;;
17207;SDS011;8720;48.488;9.202;2023-02-15T10:16:37;20.00;;;14.40;;
17207;SDS011;8720;48.488;9.202;2023-02-15T10:19:18;19.57;;;14.00;;
17207;SDS011;8720;48.488;9.202;2023-02-15T10:22:04;16.30;;;12.90;;
17207;SDS011;8720;48.488;9.202;2023-02-15T10:24:55;20.40;;;14.43;;
17207;SDS011;8720;48.488;9.202;2023-02-15T10:27:46;22.10;;;13.30;;
17207;SDS011;8720;48.488;9.202;2023-02-15T10:30:19;23.70;;;14.07;;
17207;SDS011;8720;48.488;9.202;2023-02-15T10:33:02;18.97;;;13.00;;
17207;SDS011;8720;48.488;9.202;2023-02-15T10:35:36;17.53;;;13.63;;
17207;SDS011;8720;48.488;9.202;2023-02-15T10:38:20;18.50;;;12.77;;
17207;SDS011;8720;48.488;9.202;2023-02-15T10:41:00;17.93;;;12.80;;
17207;SDS011;8720;48.488;9.202;2023-02-15T10:43:46;16.10;;;12.70;;
17207;SDS011;8720;48.488;9.202;2023-02-15T10:46:35;16.47;;;12.70;;
17207;SDS011;8720;48.488;9.202;2023-02-15T10:49:28;16.20;;;12.70;;
17207;SDS011;8720;48.488;9.202;2023-02-15T10:52:25;21.53;;;14.50;;
17207;SDS011;8720;48.488;9.202;2023-02-15T10:55:10;20.63;;;14.30;;
17207;SDS011;8720;48.488;9.202;2023-02-15T10:57:48;18.10;;;14.40;;
17207;SDS011;8720;48.488;9.202;2023-02-15T11:00:26;18.10;;;12.57;;
17207;SDS011;8720;48.488;9.202;2023-02-15T11:03:14;16.83;;;13.33;;
17207;SDS011;8720;48.488;9.202;2023-02-15T11:06:13;18.10;;;12.80;;
17207;SDS011;8720;48.488;9.202;2023-02-15T11:08:45;17.30;;;14.17;;
17207;SDS011;8720;48.488;9.202;2023-02-15T11:11:19;17.13;;;12.50;;
17207;SDS011;8720;48.488;9.202;2023-02-15T11:13:53;18.20;;;14.20;;
17207;SDS011;8720;48.488;9.202;2023-02-15T11:16:26;19.10;;;13.23;;
17207;SDS011;8720;48.488;9.202;2023-02-15T11:19:01;19.30;;;13.23;;
17207;SDS011;8720;48.488;9.202;2023-02-15T11:21:37;17.60;;;13.07;;
17207;SDS011;8720;48.488;9.202;2023-02-15T11:24:10;14.33;;;12.83;;
17207;SDS011;8720;48.488;9.202;2023-02-15T11:26:43;17.70;;;14.17;;
17207;SDS011;8720;48.488;9.202;2023-02-15T11:29:17;13.90;;;12.20;;
17207;SDS011;8720;48.488;9.202;2023-02-15T11:31:54;16.10;;;14.10;;
17207;SDS011;8720;48.488;9.202;2023-02-15T11:34:29;17.20;;;12.70;;
17207;SDS011;8720;48.488;9.202;2023-02-15T11:37:01;15.33;;;13.27;;
17207;SDS011;8720;48.488;9.202;2023-02-15T11:39:36;17.33;;;12.93;;
17207;SDS011;8720;48.488;9.202;2023-02-15T11:42:04;16.20;;;13.83;;
17207;SDS011;8720;48.488;9.202;2023-02-15T11:44:41;18.63;;;12.73;;
17207;SDS011;8720;48.488;9.202;2023-02-15T11:47:25;15.13;;;13.53;;
17207;SDS011;8720;48.488;9.202;2023-02-15T11:49:54;15.37;;;13.07;;
17207;SDS011;8720;48.488;9.202;2023-02-15T11:52:23;14.67;;;11.63;;
17207;SDS011;8720;48.488;9.202;2023-02-15T11:54:50;15.13;;;12.03;;
17207;SDS011;8720;48.488;9.202;2023-02-15T11:57:19;13.10;;;11.70;;
17207;SDS011;8720;48.488;9.202;2023-02-15T11:59:56;16.57;;;12.47;;
17207;SDS011;8720;48.488;9.202;2023-02-15T12:02:33;14.30;;;11.53;;
17207;SDS011;8720;48.488;9.202;2023-02-15T12:05:09;14.63;;;12.40;;
17207;SDS011;8720;48.488;9.202;2023-02-15T12:07:44;18.47;;;13.40;;
17207;SDS011;8720;48.488;9.202;2023-02-15T12:10:19;14.40;;;12.37;;
17207;SDS011;8720;48.488;9.202;2023-02-15T12:13:07;15.10;;;11.70;;
17207;SDS011;8720;48.488;9.202;2023-02-15T12:15:38;14.53;;;11.57;;
17207;SDS011;8720;48.488;9.202;2023-02-15T12:18:17;15.83;;;12.80;;
17207;SDS011;8720;48.488;9.202;2023-02-15T12:21:02;17.57;;;11.50;;
17207;SDS011;8720;48.488;9.202;2023-02-15T12:23:34;15.03;;;11.80;;
17207;SDS011;8720;48.488;9.202;2023-02-15T12:26:12;13.70;;;11.90;;
17207;SDS011;8720;48.488;9.202;2023-02-15T12:28:41;17.07;;;11.30;;
17207;SDS011;8720;48.488;9.202;2023-02-15T12:31:19;15.30;;;11.00;;
17207;SDS011;8720;48.488;9.202;2023-02-15T12:33:52;12.00;;;10.73;;
17207;SDS011;8720;48.488;9.202;2023-02-15T12:36:25;11.60;;;10.40;;
17207;SDS011;8720;48.488;9.202;2023-02-15T12:39:03;12.70;;;11.40;;
17207;SDS011;8720;48.488;9.202;2023-02-15T12:41:45;12.57;;;10.30;;
17207;SDS011;8720;48.488;9.202;2023-02-15T12:44:26;16.20;;;10.60;;
17207;SDS011;8720;48.488;9.202;2023-02-15T12:46:58;10.97;;;9.70;;
17207;SDS011;8720;48.488;9.202;2023-02-15T12:49:29;13.23;;;10.00;;
17207;SDS011;8720;48.488;9.202;2023-02-15T12:51:59;16.23;;;11.20;;
17207;SDS011;8720;48.488;9.202;2023-02-15T12:54:33;12.23;;;9.60;;
17207;SDS011;8720;48.488;9.202;2023-02-15T12:57:24;10.80;;;8.80;;
17207;SDS011;8720;48.488;9.202;2023-02-15T12:59:54;10.60;;;9.03;;
17207;SDS011;8720;48.488;9.202;2023-02-15T13:02:25;9.50;;;8.50;;
17207;SDS011;8720;48.488;9.202;2023-02-15T13:05:04;9.93;;;8.80;;
17207;SDS011;8720;48.488;9.202;2023-02-15T13:07:47;9.77;;;8.10;;
17207;SDS011;8720;48.488;9.202;2023-02-15T13:10:23;10.87;;;7.87;;
17207;SDS011;8720;48.488;9.202;2023-02-15T13:12:54;9.60;;;7.33;;
17207;SDS011;8720;48.488;9.202;2023-02-15T13:15:27;8.47;;;7.40;;
17207;SDS011;8720;48.488;9.202;2023-02-15T13:18:01;7.77;;;6.43;;
17207;SDS011;8720;48.488;9.202;2023-02-15T13:20:32;9.13;;;6.80;;
17207;SDS011;8720;48.488;9.202;2023-02-15T13:23:09;9.30;;;6.70;;
17207;SDS011;8720;48.488;9.202;2023-02-15T13:25:52;7.07;;;6.37;;
17207;SDS011;8720;48.488;9.202;2023-02-15T13:28:24;8.70;;;6.50;;
17207;SDS011;8720;48.488;9.202;2023-02-15T13:31:00;7.77;;;5.30;;
17207;SDS011;8720;48.488;9.202;2023-02-15T13:33:30;7.87;;;4.50;;
17207;SDS011;8720;48.488;9.202;2023-02-15T13:36:03;6.00;;;5.40;;
17207;SDS011;8720;48.488;9.202;2023-02-15T13:38:45;6.30;;;5.63;;
17207;SDS011;8720;48.488;9.202;2023-02-15T13:41:23;7.20;;;5.60;;
17207;SDS011;8720;48.488;9.202;2023-02-15T13:44:01;6.97;;;4.73;;
17207;SDS011;8720;48.488;9.202;2023-02-15T13:46:57;5.03;;;4.50;;
17207;SDS011;8720;48.488;9.202;2023-02-15T13:49:47;7.20;;;5.90;;
17207;SDS011;8720;48.488;9.202;2023-02-15T13:52:35;6.87;;;5.53;;
17207;SDS011;8720;48.488;9.202;2023-02-15T13:55:32;9.10;;;5.97;;
17207;SDS011;8720;48.488;9.202;2023-02-15T13:58:10;8.60;;;7.00;;
17207;SDS011;8720;48.488;9.202;2023-02-15T14:01:18;7.70;;;6.90;;
17207;SDS011;8720;48.488;9.202;2023-02-15T14:07:25;8.33;;;7.43;;
17207;SDS011;8720;48.488;9.202;2023-02-15T14:13:19;10.53;;;8.50;;
17207;SDS011;8720;48.488;9.202;2023-02-15T14:16:28;10.47;;;8.50;;
17207;SDS011;8720;48.488;9.202;2023-02-15T14:19:13;9.10;;;8.03;;
17207;SDS011;8720;48.488;9.202;2023-02-15T14:21:55;11.80;;;7.77;;
17207;SDS011;8720;48.488;9.202;2023-02-15T14:24:33;8.47;;;7.47;;
17207;SDS011;8720;48.488;9.202;2023-02-15T14:27:13;7.03;;;6.33;;
17207;SDS011;8720;48.488;9.202;2023-02-15T14:29:53;6.47;;;5.80;;
17207;SDS011;8720;48.488;9.202;2023-02-15T14:32:27;7.73;;;7.00;;
17207;SDS011;8720;48.488;9.202;2023-02-15T14:35:03;9.10;;;8.00;;
17207;SDS011;8720;48.488;9.202;2023-02-15T14:37:39;7.67;;;6.53;;
17207;SDS011;8720;48.488;9.202;2023-02-15T14:40:29;7.87;;;6.77;;
17207;SDS011;8720;48.488;9.202;2023-02-15T14:43:27;8.40;;;6.97;;
17207;SDS011;8720;48.488;9.202;2023-02-15T14:46:16;13.37;;;6.83;;
17207;SDS011;8720;48.488;9.202;2023-02-15T14:48:53;8.03;;;7.07;;
17207;SDS011;8720;48.488;9.202;2023-02-15T14:57:26;8.57;;;7.30;;
17207;SDS011;8720;48.488;9.202;2023-02-15T15:00:01;8.30;;;6.87;;
17207;SDS011;8720;48.488;9.202;2023-02-15T15:03:06;8.10;;;6.63;;
17207;SDS011;8720;48.488;9.202;2023-02-15T15:05:49;7.97;;;5.47;;
17207;SDS011;8720;48.488;9.202;2023-02-15T15:08:25;8.70;;;5.40;;
17207;SDS011;8720;48.488;9.202;2023-02-15T15:14:08;4.60;;;4.20;;
17207;SDS011;8720;48.488;9.202;2023-02-15T15:16:48;7.20;;;4.70;;
17207;SDS011;8720;48.488;9.202;2023-02-15T15:22:38;6.33;;;3.53;;
17207;SDS011;8720;48.488;9.202;2023-02-15T15:25:09;4.17;;;3.53;;
17207;SDS011;8720;48.488;9.202;2023-02-15T15:28:00;4.30;;;3.40;;
17207;SDS011;8720;48.488;9.202;2023-02-15T15:46:55;4.73;;;3.60;;
17207;SDS011;8720;48.488;9.202;2023-02-15T15:49:44;5.20;;;3.90;;
17207;SDS011;8720;48.488;9.202;2023-02-15T15:52:14;4.20;;;3.43;;
17207;SDS011;8720;48.488;9.202;2023-02-15T15:54:44;4.80;;;3.90;;
17207;SDS011;8720;48.488;9.202;2023-02-15T15:57:19;5.57;;;4.27;;
17207;SDS011;8720;48.488;9.202;2023-02-15T15:59:55;6.53;;;4.93;;
17207;SDS011;8720;48.488;9.202;2023-02-15T16:02:26;6.30;;;4.37;;
17207;SDS011;8720;48.488;9.202;2023-02-15T16:04:54;6.00;;;4.80;;
17207;SDS011;8720;48.488;9.202;2023-02-15T16:07:33;8.00;;;5.17;;
17207;SDS011;8720;48.488;9.202;2023-02-15T16:10:02;6.40;;;5.30;;
17207;SDS011;8720;48.488;9.202;2023-02-15T16:12:32;6.93;;;5.70;;
17207;SDS011;8720;48.488;9.202;2023-02-15T16:15:02;6.80;;;5.93;;